• Join FlightAware (Why Join?)
  • Login
  • US Flag 
09:46AM EST


 

Airport Tracker/Info


-or-


 

Live Flight TrackerFlight Track Log ✈ AFL150 ✈ 22-Nov-2013 ✈ UUEE / SVO - MUHA / HAV

Flight Track Log - Related Links

Times and Time Zones

All times are in EST time to prevent confusion due to time zone crossing. See the AFL150 flight status page for this flight to view local times or setup timezone preferences in your user account.

Time Position Orientation Groundspeed Altitude Reporting Facility
EST Latitude Longitude Course Direction KTS MPH feet Rate Location/Type
12:24PM 53.6000 -53.3500 218° Southwest 470 541 38,000  Level Gander Center
12:25PM 53.5000 -53.4833 218° Southwest 470 541 38,000  Level Gander Center
12:26PM 53.3833 -53.6167 214° Southwest 470 541 38,000  Level Gander Center
12:27PM 53.3000 -53.7500 224° Southwest 470 541 38,000  Level Gander Center
12:28PM 53.1833 -53.8833 214° Southwest 470 541 38,000  Level Gander Center
12:29PM 53.0833 -54.0333 222° Southwest 470 541 38,000  Level Gander Center
12:30PM 52.9833 -54.2000 225° Southwest 480 552 38,000  Level Gander Center
12:31PM 52.8833 -54.4000 230° Southwest 480 552 38,000  Level Gander Center
12:32PM 52.8000 -54.5500 227° Southwest 480 552 38,000  Level Gander Center
12:33PM 52.7167 -54.7333 233° Southwest 480 552 38,000  Level Gander Center
12:34PM 52.6333 -54.8833 228° Southwest 480 552 38,000  Level Gander Center
12:35PM 52.5500 -55.0667 233° Southwest 490 564 38,000  Level Gander Center
12:36PM 52.4500 -55.2167 222° Southwest 480 552 38,000  Level Gander Center
12:37PM 52.3667 -55.3833 231° Southwest 480 552 38,000  Level Gander Center
12:38PM 52.2833 -55.5333 228° Southwest 480 552 38,000  Level Gander Center
12:39PM 52.2000 -55.7167 233° Southwest 480 552 38,000  Level Gander Center
12:40PM 52.1000 -55.8667 223° Southwest 470 541 38,000  Level Gander Center
12:41PM 52.0333 -56.0333 237° Southwest 470 541 38,000  Level Gander Center
12:42PM 51.9333 -56.1833 223° Southwest 460 529 38,000  Level Gander Center
12:43PM 51.8333 -56.3333 223° Southwest 470 541 38,000  Level Gander Center
12:44PM 51.7500 -56.5000 231° Southwest 470 541 38,000  Level Gander Center
12:45PM 51.6667 -56.6500 228° Southwest 470 541 38,000  Level Gander Center
12:46PM 51.5667 -56.8167 226° Southwest 480 552 38,000  Level Gander Center
12:47PM 51.5000 -56.9500 231° Southwest 460 529 38,000  Level Gander Center
12:48PM 51.4000 -57.1000 223° Southwest 470 541 38,000  Level Gander Center
12:49PM 51.3000 -57.2667 226° Southwest 480 552 38,000  Level Gander Center
12:50PM 51.2333 -57.4167 235° Southwest 470 541 38,000  Level Gander Center
12:51PM 51.1333 -57.5833 226° Southwest 470 541 38,000  Level Gander Center
12:52PM 51.0500 -57.7167 225° Southwest 470 541 38,000  Level Gander Center
12:53PM 50.9500 -57.8833 226° Southwest 470 541 38,000  Level Gander Center
12:54PM 50.8667 -58.0167 225° Southwest 470 541 38,000  Level Gander Center
12:55PM 50.7833 -58.1667 229° Southwest 470 541 38,000  Level Gander Center
12:56PM 50.6833 -58.3333 227° Southwest 470 541 38,000  Level Gander Center
12:57PM 50.5833 -58.4667 220° Southwest 460 529 38,000  Level Gander Center
12:58PM 50.5000 -58.6333 232° Southwest 460 529 38,000  Level Gander Center
12:59PM 50.4167 -58.7667 226° Southwest 460 529 38,000  Level Gander Center
01:00PM 50.3167 -58.9333 227° Southwest 470 541 38,000  Level Gander Center
01:01PM 50.2333 -59.0667 226° Southwest 470 541 38,000  Level Gander Center
01:02PM 50.1333 -59.2000 221° Southwest 460 529 38,000  Level Gander Center
01:03PM 50.0500 -59.3500 229° Southwest 460 529 38,000  Level Gander Center
01:04PM 49.9667 -59.4833 226° Southwest 460 529 38,000  Level Gander Center
01:05PM 49.8667 -59.6167 221° Southwest 460 529 38,000  Level Gander Center
01:06PM 49.7833 -59.7500 226° Southwest 460 529 38,000  Level Gander Center
01:07PM 49.7000 -59.9167 232° Southwest 460 529 38,000  Level Gander Center
01:08PM 49.6000 -60.0500 221° Southwest 460 529 38,000  Level Gander Center
01:09PM 49.5167 -60.2000 229° Southwest 460 529 38,000  Level Gander Center
01:10PM 49.4167 -60.3333 221° Southwest 460 529 38,000  Level Gander Center
01:11PM 49.3333 -60.4667 226° Southwest 460 529 38,000  Level Gander Center
01:12PM 49.2333 -60.6167 224° Southwest 460 529 38,000  Level Gander Center
01:13PM 49.1500 -60.7500 226° Southwest 460 529 38,000  Level Gander Center
01:14PM 49.0500 -60.8667 217° Southwest 460 529 38,000  Level Gander Center
01:15PM 48.9667 -61.0000 226° Southwest 460 529 38,000  Level Gander Center
01:16PM 48.8667 -61.1500 225° Southwest 460 529 38,000  Level Gander Center
01:17PM 48.7833 -61.2833 227° Southwest 460 529 38,000  Level Gander Center
01:18PM 48.6833 -61.4167 221° Southwest 460 529 38,000  Level Gander Center
01:19PM 48.6000 -61.5667 230° Southwest 460 529 38,000  Level Gander Center
01:20PM 48.5000 -61.6833 218° Southwest 460 529 38,000  Level Gander Center
01:22PM 48.3833 -61.8833 229° Southwest 460 529 38,000  Level Moncton Center
01:23PM 48.2833 -62.0000 218° Southwest 460 529 38,000  Level Moncton Center
01:24PM 48.2000 -62.1333 227° Southwest 460 529 38,000  Level Moncton Center
01:25PM 48.1000 -62.2667 222° Southwest 450 518 38,000  Level Moncton Center
01:26PM 48.0167 -62.4000 227° Southwest 450 518 38,000  Level Moncton Center
01:27PM 47.9167 -62.5167 218° Southwest 450 518 38,000  Level Moncton Center
01:27PM 47.8500 -62.6000 220° Southwest 450 518 38,000  Level Gander Center
01:28PM 47.7667 -62.7167 223° Southwest 460 529 38,000  Level Gander Center
01:29PM 47.6667 -62.8500 222° Southwest 450 518 38,000  Level Gander Center
01:30PM 47.5833 -62.9667 223° Southwest 450 518 38,000  Level Gander Center
01:31PM 47.4833 -63.1167 225° Southwest 450 518 38,000  Level Gander Center
01:32PM 47.4000 -63.2333 223° Southwest 450 518 38,000  Level Gander Center
01:33PM 47.3167 -63.3500 224° Southwest 450 518 38,000  Level Gander Center
01:34PM 47.2000 -63.4667 214° Southwest 450 518 38,000  Level Gander Center
01:35PM 47.1167 -63.6167 231° Southwest 450 518 38,000  Level Gander Center
01:36PM 47.0333 -63.7333 224° Southwest 450 518 38,000  Level Gander Center
01:37PM 46.9333 -63.8500 219° Southwest 440 506 38,000  Level Gander Center
01:38PM 46.8500 -63.9667 224° Southwest 450 518 38,000  Level Gander Center
01:39PM 46.7667 -64.0833 224° Southwest 440 506 38,000  Level Gander Center
01:40PM 46.6500 -64.2333 221° Southwest 450 518 38,000  Level Gander Center
01:41PM 46.5667 -64.3500 224° Southwest 450 518 38,000  Level Gander Center
01:46PM 46.0993 -64.9597 224° Southwest 438 504 38,000  Level FlightAware ADS-B (CYQI)
01:47PM 46.0287 -65.0490 221° Southwest 437 503 38,000  Level FlightAware ADS-B (CYQI)
01:49PM 45.8623 -65.2574 221° Southwest 438 504 38,000  Level FlightAware ADS-B (CYQI)
01:50PM 45.7860 -65.3524 221° Southwest 439 505 38,000  Level FlightAware ADS-B (CYQI)
01:50PM 45.7313 -65.4203 221° Southwest 440 506 38,000  Level FlightAware ADS-B (CYQI)
01:51PM 45.6546 -65.5151 221° Southwest 437 503 38,000  Level FlightAware ADS-B (CYQI)
01:52PM 45.6017 -65.5803 221° Southwest 435 501 38,000  Level FlightAware ADS-B (CYQI)
01:53PM 45.5416 -65.6543 221° Southwest 437 503 38,000  Level FlightAware ADS-B (CYQI)
01:53PM 45.4937 -65.7131 221° Southwest 438 504 38,000  Level FlightAware ADS-B (CYQI)
01:54PM 45.4460 -65.7716 221° Southwest 442 509 38,000  Level FlightAware ADS-B (CYQI)
01:54PM 45.3633 -65.8726 221° Southwest 443 510 38,000  Level FlightAware ADS-B (CYQI)
01:55PM 45.3143 -65.9322 221° Southwest 441 507 38,000  Level FlightAware ADS-B (CYQI)
01:55PM 45.2698 -65.9862 220° Southwest 440 506 38,000  Level FlightAware ADS-B (CYQI)
01:56PM 45.2066 -66.0626 220° Southwest 438 504 38,000  Level FlightAware ADS-B (CYQI)
01:57PM 45.1608 -66.1178 220° Southwest 434 499 38,000  Level FlightAware ADS-B (CYQI)
01:57PM 45.0819 -66.2127 220° Southwest 429 494 38,000  Level FlightAware ADS-B (CYQI)
01:58PM 45.0363 -66.2676 220° Southwest 428 493 38,000  Level FlightAware ADS-B (CYQI)
01:58PM 44.9904 -66.3225 220° Southwest 427 491 38,000  Level FlightAware ADS-B (CYQI)
01:59PM 44.9330 -66.3910 220° Southwest 426 490 38,000  Level FlightAware ADS-B (CYQI)
02:00PM 44.8773 -66.4574 220° Southwest 426 490 38,000  Level FlightAware ADS-B (CYQI)
02:01PM 44.7960 -66.5541 220° Southwest 429 494 38,000  Level FlightAware ADS-B (CYQI)
02:02PM 44.6635 -66.7105 220° Southwest 436 502 38,000  Level FlightAware ADS-B (CYQI)
02:03PM 44.6217 -66.7598 220° Southwest 437 503 38,000  Level FlightAware ADS-B (CYQI)
02:03PM 44.5651 -66.8262 220° Southwest 437 503 38,000  Level FlightAware ADS-B (CYQI)
02:04PM 44.5143 -66.8858 220° Southwest 438 504 38,000  Level FlightAware ADS-B (CYQI)
02:04PM 44.4579 -66.9516 220° Southwest 439 505 38,000  Level FlightAware ADS-B (CYQI)
02:05PM 44.4084 -67.0107 220° Southwest 435 501 38,000  Level FlightAware ADS-B (CYQI)
02:05PM 44.3635 -67.0719 224° Southwest 433 498 38,000  Level FlightAware ADS-B (CYQI)
02:06PM 44.3201 -67.1322 225° Southwest 431 496 38,000  Level FlightAware ADS-B (CYQI)
02:06PM 44.2751 -67.1944 225° Southwest 431 496 38,000  Level FlightAware ADS-B (CYQI)
02:07PM 44.2261 -67.2617 225° Southwest 431 496 38,000  Level FlightAware ADS-B (CYQI)
02:07PM 44.1884 -67.3130 224° Southwest 431 496 38,000  Level FlightAware ADS-B (CYQI)
02:08PM 44.1401 -67.3790 224° Southwest 433 498 38,000  Level FlightAware ADS-B (CYQI)
02:09PM 44.0708 -67.4730 224° Southwest 434 499 38,000  Level FlightAware ADS-B (CYQI)
02:09PM 44.0248 -67.5354 224° Southwest 432 497 38,000  Level FlightAware ADS-B (CYQI)
02:10PM 43.9668 -67.6138 224° Southwest 432 497 38,000  Level FlightAware ADS-B (CYQI)
02:11PM 43.9248 -67.6705 224° Southwest 431 496 38,000  Level FlightAware ADS-B (CYQI)
02:11PM 43.8707 -67.7431 224° Southwest 429 494 38,000  Level FlightAware ADS-B (CYQI)
02:12PM 43.8074 -67.8281 224° Southwest 427 491 38,000  Level FlightAware ADS-B (CYQI)
02:12PM 43.7633 -67.8871 224° Southwest 427 491 38,000  Level FlightAware ADS-B (CYQI)
02:13PM 43.7151 -67.9515 224° Southwest 426 490 38,000  Level FlightAware ADS-B (CYQI)
02:14PM 43.6589 -68.0266 224° Southwest 427 491 38,000  Level FlightAware ADS-B (CYQI)
02:14PM 43.6081 -68.0938 224° Southwest 429 494 38,000  Level FlightAware ADS-B (CYQI)
02:15PM 43.5648 -68.1512 224° Southwest 429 494 38,000  Level FlightAware ADS-B (CYQI)
02:15PM 43.5088 -68.2252 224° Southwest 431 496 38,000  Level FlightAware ADS-B (CYQI)
02:16PM 43.4488 -68.3042 224° Southwest 434 499 38,000  Level FlightAware ADS-B (CYQI)
02:17PM 43.4063 -68.3601 224° Southwest 434 499 38,000  Level FlightAware ADS-B (CYQI)
02:17PM 43.3581 -68.4232 224° Southwest 433 498 38,000  Level FlightAware ADS-B (KBOS)
02:18PM 43.3076 -68.4892 224° Southwest 431 496 38,000  Level FlightAware ADS-B (CYQI)
02:18PM 43.2557 -68.5571 224° Southwest 431 496 38,000  Level FlightAware ADS-B (CYQI)
02:19PM 43.2305 -68.5899 224° Southwest 432 497 38,000  Level FlightAware ADS-B (CYQI)
02:19PM 43.2154 -68.6096 224° Southwest 432 497 38,000  Level FlightAware ADS-B (KBOS)
02:19PM 43.2021 -68.6269 223° Southwest 432 497 38,000  Level FlightAware ADS-B (KBOS)
02:19PM 43.1839 -68.6506 223° Southwest 433 498 38,000  Level FlightAware ADS-B (KBOS)
02:19PM 43.1709 -68.6675 224° Southwest 434 499 38,000  Level FlightAware ADS-B (KBOS)
02:20PM 43.1412 -68.7061 224° Southwest 433 498 38,000  Level FlightAware ADS-B (KBOS)
02:20PM 43.1120 -68.7438 223° Southwest 433 498 38,000  Level FlightAware ADS-B (KBOS)
02:20PM 43.0828 -68.7816 223° Southwest 433 498 38,000  Level FlightAware ADS-B (CYQI)
02:21PM 43.0420 -68.8343 223° Southwest 433 498 38,000  Level FlightAware ADS-B (KBOS)
02:21PM 42.9833 -68.9101 223° Southwest 431 496 38,000  Level FlightAware ADS-B (CYQI)
02:23PM 42.8848 -69.0365 223° Southwest 427 491 38,000  Level FlightAware ADS-B (KBOS)
02:23PM 42.8243 -69.1139 223° Southwest 427 491 38,000  Level FlightAware ADS-B (KBOS)
02:24PM 42.7676 -69.1864 223° Southwest 428 493 38,000  Level FlightAware ADS-B (KBOS)
02:25PM 42.6787 -69.2995 223° Southwest 430 495 38,000  Level FlightAware ADS-B (KBOS)
02:26PM 42.6327 -69.3575 223° Southwest 430 495 38,000  Level FlightAware ADS-B (CYQI)
02:26PM 42.5541 -69.4569 223° Southwest 422 486 38,000  Level FlightAware ADS-B
02:27PM 42.5467 -69.4662 223° Southwest 422 486 38,000  Level FlightAware ADS-B
02:27PM 42.4913 -69.5362 223° Southwest 428 493 38,000  Level FlightAware ADS-B (KBOS)
02:27PM 42.4712 -69.5614 223° Southwest 422 486 38,000  Level FlightAware ADS-B
02:28PM 42.4223 -69.6228 223° Southwest 422 486 38,000  Level FlightAware ADS-B
02:28PM 42.4122 -69.6354 223° Southwest 422 486 38,000  Level FlightAware ADS-B
02:28PM 42.3783 -69.6780 223° Southwest 422 486 38,000  Level FlightAware ADS-B
02:29PM 42.3471 -69.7169 223° Southwest 422 486 38,000  Level FlightAware ADS-B
02:29PM 42.3021 -69.7731 223° Southwest 426 490 38,000  Level FlightAware ADS-B (KBOS)
02:30PM 42.2746 -69.8073 223° Southwest 419 482 38,000  Level FlightAware ADS-B
02:30PM 42.2568 -69.8295 223° Southwest 420 483 38,000  Level FlightAware ADS-B
02:30PM 42.2509 -69.8368 223° Southwest 427 491 38,000  Level FlightAware ADS-B (SBBR / BSB)
02:31PM 42.1922 -69.9099 223° Southwest 421 484 38,000  Level FlightAware ADS-B
02:31PM 42.1445 -69.9689 223° Southwest 425 489 38,000  Level FlightAware ADS-B (KBOS)
02:32PM 42.0985 -70.0258 223° Southwest 423 487 38,000  Level FlightAware ADS-B (SBBR / BSB)
02:32PM 42.0588 -70.0748 222° Southwest 420 483 38,000  Level FlightAware ADS-B (KBOS)
02:33PM 42.0137 -70.1304 223° Southwest 418 481 38,000  Level FlightAware ADS-B (KBOS)
02:33PM 41.9637 -70.1921 223° Southwest 418 481 38,000  Level FlightAware ADS-B
02:34PM 41.9238 -70.2427 223° Southwest 411 473 38,000  Level FlightAware ADS-B (KBOS)
02:34PM 41.9089 -70.2641 227° Southwest 409 471 38,000  Level FlightAware ADS-B (SBBR / BSB)
02:34PM 41.8963 -70.2837 229° Southwest 403 464 38,000  Level FlightAware ADS-B (SBBR / BSB)
02:35PM 41.8640 -70.3398 232° Southwest 417 480 38,000  Level FlightAware ADS-B (KOWD)
02:35PM 41.8573 -70.3516 233° Southwest 417 480 38,000  Level FlightAware ADS-B (KOWD)
02:35PM 41.8162 -70.4235 233° Southwest 398 458 38,000  Level FlightAware ADS-B
02:36PM 41.7806 -70.4852 232° Southwest 396 456 38,000  Level FlightAware ADS-B (SBBR / BSB)
02:36PM 41.7478 -70.5416 232° Southwest 396 456 38,000  Level FlightAware ADS-B
02:37PM 41.7098 -70.6067 232° Southwest 393 452 38,000  Level FlightAware ADS-B (KOWD)
02:38PM 41.6629 -70.6872 232° Southwest 391 450 38,000  Level FlightAware ADS-B (KBOS)
02:38PM 41.6245 -70.7527 232° Southwest 392 451 38,000  Level FlightAware ADS-B (KOWD)
02:39PM 41.5852 -70.8200 232° Southwest 388 447 38,000  Level FlightAware ADS-B
02:39PM 41.5494 -70.8808 232° Southwest 381 438 38,000  Level FlightAware ADS-B
02:39PM 41.5426 -70.8924 232° Southwest 386 444 38,000  Level FlightAware ADS-B (SBBR / BSB)
02:40PM 41.5035 -70.9588 232° Southwest 379 436 38,000  Level FlightAware ADS-B
02:40PM 41.4916 -70.9791 232° Southwest 384 442 38,000  Level FlightAware ADS-B (SBBR / BSB)
02:41PM 41.4485 -71.0520 232° Southwest 380 437 38,000  Level FlightAware ADS-B
02:41PM 41.4162 -71.1065 232° Southwest 378 435 38,000  Level FlightAware ADS-B
02:42PM 41.3959 -71.1408 232° Southwest 383 441 38,000  Level FlightAware ADS-B (SBBR / BSB)
02:42PM 41.3616 -71.1987 232° Southwest 378 435 38,000  Level FlightAware ADS-B
02:43PM 41.3283 -71.2546 232° Southwest 379 436 38,000  Level FlightAware ADS-B
02:43PM 41.2924 -71.3148 232° Southwest 384 442 38,000  Level FlightAware ADS-B (SBBR / BSB)
02:44PM 41.2553 -71.3769 232° Southwest 378 435 38,000  Level FlightAware ADS-B
02:44PM 41.2260 -71.4260 232° Southwest 378 435 38,000  Level FlightAware ADS-B
02:45PM 41.2017 -71.4666 232° Southwest 377 434 38,000  Level FlightAware ADS-B
02:45PM 41.1584 -71.5386 231° Southwest 381 438 38,000  Level FlightAware ADS-B (SBBR / BSB)
02:46PM 41.1250 -71.5941 231° Southwest 379 436 38,000  Level FlightAware ADS-B (SBBR / BSB)
02:46PM 41.1139 -71.6126 231° Southwest 374 430 38,000  Level FlightAware ADS-B
02:47PM 41.0706 -71.6843 231° Southwest 379 436 38,000  Level FlightAware ADS-B (SBBR / BSB)
02:47PM 41.0386 -71.7373 231° Southwest 380 437 38,000  Level FlightAware ADS-B (SBBR / BSB)
02:48PM 41.0049 -71.7930 231° Southwest 381 438 38,000  Level FlightAware ADS-B (SBBR / BSB)
02:48PM 41.0061 -71.7911 52° Northeast 381 438 38,000  Level FlightAware ADS-B (KSNC)
02:49PM 40.9335 -71.9105 231° Southwest 380 437 38,000  Level FlightAware ADS-B (SBBR / BSB)
02:49PM 40.8857 -71.9890 231° Southwest 380 437 38,000  Level FlightAware ADS-B (SBBR / BSB)
02:50PM 40.8534 -72.0420 231° Southwest 379 436 38,000  Level FlightAware ADS-B (SBBR / BSB)
02:51PM 40.8242 -72.0899 231° Southwest 379 436 38,000  Level FlightAware ADS-B (KSNC)
02:51PM 40.7814 -72.1596 231° Southwest 378 435 38,000  Level FlightAware ADS-B (KSNC)
02:52PM 40.7181 -72.2627 231° Southwest 379 436 38,000  Level FlightAware ADS-B (KSNC)
02:53PM 40.6703 -72.3403 231° Southwest 380 437 38,000  Level FlightAware ADS-B (KSNC)
02:53PM 40.6275 -72.4096 231° Southwest 379 436 38,000  Level FlightAware ADS-B (KSNC)
02:54PM 40.5927 -72.4659 231° Southwest 379 436 38,000  Level FlightAware ADS-B (KSNC)
02:54PM 40.5472 -72.5393 231° Southwest 380 437 38,000  Level FlightAware ADS-B (KSNC)
02:55PM 40.5153 -72.5906 231° Southwest 380 437 38,000  Level FlightAware ADS-B (KSNC)
02:56PM 40.4775 -72.6512 231° Southwest 381 438 38,000  Level FlightAware ADS-B (KWWD)
02:56PM 40.4395 -72.7122 231° Southwest 381 438 38,000  Level FlightAware ADS-B (KWWD)
02:57PM 40.4035 -72.7698 231° Southwest 382 440 38,000  Level FlightAware ADS-B (KSNC)
02:57PM 40.3589 -72.8409 231° Southwest 382 440 38,000  Level FlightAware ADS-B (KSNC)
02:58PM 40.3179 -72.9062 231° Southwest 381 438 38,000  Level FlightAware ADS-B (KWWD)
02:58PM 40.2807 -72.9654 231° Southwest 382 440 38,000  Level FlightAware ADS-B (KSNC)
02:59PM 40.2460 -73.0204 230° Southwest 381 438 38,000  Level FlightAware ADS-B (KSNC)
02:59PM 40.2355 -73.0371 230° Southwest 381 438 38,000  Level FlightAware ADS-B (KWWD)
03:00PM 40.1965 -73.0987 230° Southwest 381 438 38,000  Level FlightAware ADS-B (KWWD)
03:00PM 40.2045 -73.0862 50° Northeast 381 438 38,000  Level FlightAware ADS-B (KSNC)
03:00PM 40.1501 -73.1721 230° Southwest 381 438 38,000  Level FlightAware ADS-B (KWWD)
03:01PM 40.1163 -73.2253 230° Southwest 381 438 38,000  Level FlightAware ADS-B (KSNC)
03:01PM 40.1008 -73.2487 229° Southwest 388 447 38,000  Level FlightAware ADS-B (KSNC)
03:02PM 40.0453 -73.3143 222° Southwest 397 457 38,000  Level FlightAware ADS-B (KSNC)
03:02PM 40.0219 -73.3407 221° Southwest 396 456 38,000  Level FlightAware ADS-B (KSNC)
03:03PM 39.9820 -73.3862 221° Southwest 396 456 38,000  Level FlightAware ADS-B (KSNC)
03:03PM 39.9199 -73.4560 221° Southwest 390 449 38,000  Level FlightAware ADS-B (KWWD)
03:04PM 39.8750 -73.5062 221° Southwest 390 449 38,000  Level FlightAware ADS-B (KWWD)
03:04PM 39.8282 -73.5583 221° Southwest 396 456 38,000  Level FlightAware ADS-B (KSNC)
03:05PM 39.7858 -73.6054 220° Southwest 396 456 38,000  Level FlightAware ADS-B (KSNC)
03:05PM 39.7416 -73.6545 221° Southwest 395 455 38,000  Level FlightAware ADS-B (KSNC)
03:06PM 39.6899 -73.7118 220° Southwest 389 448 38,000  Level FlightAware ADS-B (KWWD)
03:07PM 39.6450 -73.7616 220° Southwest 399 459 38,000  Level FlightAware ADS-B (KSNC)
03:07PM 39.6351 -73.7725 220° Southwest 399 459 38,000  Level FlightAware ADS-B (KSNC)
03:07PM 39.5777 -73.8357 220° Southwest 401 461 38,000  Level FlightAware ADS-B (KWWD)
03:08PM 39.5350 -73.8828 220° Southwest 401 461 38,000  Level FlightAware ADS-B (KWWD)
03:08PM 39.4925 -73.9296 220° Southwest 402 463 38,000  Level FlightAware ADS-B (KWWD)
03:09PM 39.4497 -73.9766 220° Southwest 403 464 38,000  Level FlightAware ADS-B (KWWD)
03:10PM 39.3924 -74.0393 220° Southwest 404 465 38,000  Level FlightAware ADS-B (KWWD)
03:10PM 39.3502 -74.0854 220° Southwest 404 465 38,000  Level FlightAware ADS-B (KWWD)
03:11PM 39.3065 -74.1330 220° Southwest 402 463 38,000  Level FlightAware ADS-B (KWWD)
03:11PM 39.2644 -74.1789 220° Southwest 402 463 38,000  Level FlightAware ADS-B (KWWD)
03:12PM 39.2072 -74.2411 220° Southwest 402 463 38,000  Level FlightAware ADS-B (KWWD)
03:12PM 39.1493 -74.3040 220° Southwest 399 459 38,000  Level FlightAware ADS-B (KWWD)
03:13PM 39.1048 -74.3521 220° Southwest 398 458 38,000  Level FlightAware ADS-B (KWWD)
03:13PM 39.0628 -74.3976 220° Southwest 399 459 38,000  Level FlightAware ADS-B (KWWD)
03:14PM 38.9983 -74.4672 220° Southwest 400 460 38,000  Level FlightAware ADS-B (KWWD)
03:15PM 38.9491 -74.5202 220° Southwest 400 460 38,000  Level FlightAware ADS-B (KWWD)
03:15PM 38.8960 -74.5772 220° Southwest 405 466 38,000  Level FlightAware ADS-B (KWWD)
03:16PM 38.8476 -74.6291 220° Southwest 401 461 38,000  Level FlightAware ADS-B (KWWD)
03:17PM 38.8012 -74.6788 220° Southwest 401 461 38,000  Level FlightAware ADS-B (KWWD)
03:17PM 38.7567 -74.7261 220° Southwest 401 461 38,000  Level FlightAware ADS-B (KWWD)
03:18PM 38.6919 -74.7952 220° Southwest 401 461 38,000  Level FlightAware ADS-B (KWWD)
03:18PM 38.6638 -74.8252 220° Southwest 401 461 38,000  Level FlightAware ADS-B (KWWD)
03:19PM 38.6069 -74.8856 220° Southwest 401 461 38,000  Level FlightAware ADS-B (KWWD)
03:19PM 38.6013 -74.8915 220° Southwest 409 471 38,000  Level FlightAware ADS-B (KSBY)
03:19PM 38.5690 -74.9259 220° Southwest 410 472 38,000  Level FlightAware ADS-B (KSBY)
03:20PM 38.5143 -74.9839 220° Southwest 405 466 38,000  Level FlightAware ADS-B (KWWD)
03:20PM 38.4711 -75.0295 220° Southwest 407 468 38,000  Level FlightAware ADS-B (KWWD)
03:21PM 38.4212 -75.0823 220° Southwest 416 479 38,000  Level FlightAware ADS-B (KSBY)
03:21PM 38.3809 -75.1247 220° Southwest 418 481 38,000  Level FlightAware ADS-B (KSBY)
03:22PM 38.3223 -75.1862 219° Southwest 421 484 38,000  Level FlightAware ADS-B (KWWD)
03:23PM 38.2801 -75.2306 220° Southwest 421 484 38,000  Level FlightAware ADS-B (KSBY)
03:23PM 38.2332 -75.2797 219° Southwest 421 484 38,000  Level FlightAware ADS-B (KSBY)
03:24PM 38.1816 -75.3337 219° Southwest 421 484 38,000  Level FlightAware ADS-B (KSBY)
03:24PM 38.1355 -75.3818 219° Southwest 420 483 38,000  Level FlightAware ADS-B (KSBY)
03:25PM 38.0856 -75.4338 219° Southwest 420 483 38,000  Level FlightAware ADS-B (KSBY)
03:25PM 38.0480 -75.4690 216° Southwest 429 494 38,000  Level FlightAware ADS-B (KSBY)
03:26PM 37.9806 -75.5201 211° Southwest 432 497 38,000  Level FlightAware ADS-B (KSBY)
03:26PM 37.9286 -75.5604 211° Southwest 433 498 38,000  Level FlightAware ADS-B (KSBY)
03:27PM 37.8612 -75.6120 211° Southwest 437 503 38,000  Level FlightAware ADS-B (KWWD)
03:27PM 37.8191 -75.6439 211° Southwest 439 505 38,000  Level FlightAware ADS-B (KSBY)
03:28PM 37.7572 -75.6905 211° Southwest 440 506 38,000  Level FlightAware ADS-B (KSBY)
03:29PM 37.6863 -75.7438 211° Southwest 434 499 38,000  Level FlightAware ADS-B (KWWD)
03:29PM 37.6394 -75.7789 211° Southwest 442 509 38,000  Level FlightAware ADS-B (KSBY)
03:30PM 37.5612 -75.8374 211° Southwest 435 501 38,000  Level FlightAware ADS-B (KWWD)
03:30PM 37.5494 -75.8460 210° Southwest 452 520 38,000  Level FlightAware ADS-B (KSBY)
03:30PM 37.4979 -75.8764 205° Southwest 457 526 38,000  Level FlightAware ADS-B (KSBY)
03:31PM 37.4063 -75.9259 203° Southwest 455 524 38,000  Level FlightAware ADS-B (KWWD)
03:32PM 37.3300 -75.9675 203° Southwest 456 525 38,000  Level FlightAware ADS-B (KWWD)
03:32PM 37.2707 -75.9992 203° Southwest 457 526 38,000  Level FlightAware ADS-B (KWWD)
03:33PM 37.1988 -76.0375 203° Southwest 455 524 38,000  Level FlightAware ADS-B (KWWD)
03:33PM 37.1388 -76.0694 203° Southwest 455 524 38,000  Level FlightAware ADS-B (KWWD)
03:35PM 36.9986 -76.1439 203° Southwest 456 525 38,000  Level FlightAware ADS-B (KWWD)
03:35PM 36.9293 -76.1812 203° Southwest 456 525 38,000  Level FlightAware ADS-B (KWWD)
03:36PM 36.8690 -76.2219 208° Southwest 451 519 38,000  Level FlightAware ADS-B (KWWD)
03:37PM 36.7645 -76.3163 216° Southwest 429 494 38,000  Level FlightAware ADS-B (KWWD)
03:37PM 36.7011 -76.3744 216° Southwest 436 502 38,100 660 Climbing FlightAware ADS-B (KWWD)
03:39PM 36.5908 -76.4767 216° Southwest 441 507 39,300 420 Climbing Washington Center
03:41PM 36.3111 -76.7270 216° Southwest 438 504 40,000 120 Climbing FlightAware ADS-B (KWWD)
03:43PM 36.1997 -76.8275 216° Southwest 441 507 40,000  Level Washington Center
03:44PM 36.0986 -76.9158 215° Southwest 441 507 40,000  Level Washington Center
03:45PM 36.0017 -77.0017 216° Southwest 441 507 40,000  Level Washington Center
03:46PM 35.9006 -77.0869 214° Southwest 441 507 40,000  Level Washington Center
03:47PM 35.7931 -77.1644 210° Southwest 441 507 40,000  Level Washington Center
03:48PM 35.6733 -77.2233 202° Southwest 448 516 40,000  Level Washington Center
03:49PM 35.5536 -77.2847 203° Southwest 463 533 40,000  Level Washington Center
03:50PM 35.4317 -77.3458 202° Southwest 470 541 40,000  Level Washington Center
03:51PM 35.3078 -77.4042 201° Southwest 475 547 40,000  Level Washington Center
03:52PM 35.1858 -77.4650 202° Southwest 480 552 40,000  Level Washington Center
03:53PM 35.0597 -77.5281 202° Southwest 480 552 40,000  Level Washington Center
03:54PM 34.9375 -77.5861 201° Southwest 480 552 40,000  Level Washington Center
03:55PM 34.8050 -77.6561 203° Southwest 480 552 40,000 -60 Level Washington Center
03:56PM 34.6831 -77.7161 202° Southwest 480 552 39,900  Descending Washington Center
03:57PM 34.5650 -77.7736 202° Southwest 480 552 40,000  Climbing Washington Center
03:58PM 34.4492 -77.8308 202° Southwest 469 540 40,000  Level Washington Center
03:59PM 34.2614 -77.9056 198° South 445 512 40,000  Level Jacksonville Center
04:00PM 34.1272 -77.9408 192° South 463 533 40,000  Level Jacksonville Center
04:01PM 34.0033 -77.9753 193° South 470 541 40,000  Level Jacksonville Center
04:02PM 33.8775 -78.0125 194° South 470 541 40,000  Level Jacksonville Center
04:03PM 33.7517 -78.0469 193° South 470 541 40,000  Level Jacksonville Center
04:04PM 33.6136 -78.0894 194° South 470 541 40,000  Level Jacksonville Center
04:05PM 33.4878 -78.1261 194° South 470 541 40,000  Level Jacksonville Center
04:06PM 33.3636 -78.1575 192° South 470 541 40,000  Level Jacksonville Center
04:07PM 33.2358 -78.1967 194° South 470 541 40,000  Level Jacksonville Center
04:08PM 33.1075 -78.2308 193° South 470 541 40,000  Level Jacksonville Center
04:09PM 32.9772 -78.2647 192° South 470 541 40,000  Level Jacksonville Center
04:10PM 32.8514 -78.3008 194° South 470 541 40,000  Level Jacksonville Center
04:11PM 32.7233 -78.3394 194° South 470 541 40,000  Level Jacksonville Center
04:12PM 32.5931 -78.3731 192° South 470 541 40,000  Level Jacksonville Center
04:13PM 32.4692 -78.4089 194° South 470 541 40,000  Level Jacksonville Center
04:14PM 32.3453 -78.4494 195° South 465 535 40,000  Level Jacksonville Center
04:15PM 32.2192 -78.4850 193° South 465 535 40,000  Level Jacksonville Center
04:16PM 32.0933 -78.5231 194° South 465 535 40,000  Level Jacksonville Center
04:17PM 31.9692 -78.5581 193° South 470 541 40,000  Level Jacksonville Center
04:18PM 31.8411 -78.5961 194° South 470 541 40,000  Level Jacksonville Center
04:19PM 31.7211 -78.6283 193° South 470 541 40,000  Level Jacksonville Center
04:20PM 31.5931 -78.6683 195° South 470 541 40,000  Level Jacksonville Center
04:21PM 31.4689 -78.7008 193° South 465 535 40,000  Level Jacksonville Center
04:22PM 31.3447 -78.7381 194° South 465 535 40,000  Level Jacksonville Center
04:23PM 31.2161 -78.7583 188° South 472 543 40,000  Level Jacksonville Center
04:24PM 31.1069 -78.8067 201° Southwest 464 534 40,000  Level Jacksonville Center
04:25PM 30.9703 -78.8442 193° South 467 537 40,000  Level Jacksonville Center
04:26PM 30.8442 -78.8786 193° South 462 532 40,000  Level Jacksonville Center
04:27PM 30.7222 -78.9153 194° South 478 550 40,000  Level Jacksonville Center
04:29PM 30.5169 -78.9717 193° South 471 542 40,000  Level Miami Center
04:30PM 30.3892 -79.0100 195° South 471 542 40,000  Level Miami Center
04:31PM 30.2717 -79.0606 200° South 466 536 40,000  Level Miami Center
04:32PM 30.1519 -79.1108 200° South 466 536 40,000  Level Miami Center
04:33PM 30.0303 -79.1633 200° South 466 536 40,000  Level Miami Center
04:34PM 29.9042 -79.2347 206° Southwest 466 536 40,000  Level Miami Center
04:35PM 29.7822 -79.2847 200° South 466 536 40,000  Level Miami Center
04:36PM 29.6606 -79.3344 200° South 466 536 40,000  Level Miami Center
04:37PM 29.5367 -79.3817 198° South 466 536 40,000  Level Miami Center
04:38PM 29.4128 -79.4217 196° South 466 536 40,000  Level Miami Center
04:39PM 29.2908 -79.4711 199° South 466 536 40,000  Level Miami Center
04:40PM 29.1669 -79.5158 197° South 466 536 40,000  Level Miami Center
04:41PM 29.0472 -79.5603 198° South 466 536 40,000  Level Miami Center
04:42PM 28.9214 -79.6047 197° South 466 536 40,000  Level Miami Center
04:43PM 28.7994 -79.6514 199° South 466 536 40,000  Level Miami Center
04:44PM 28.6753 -79.6956 197° South 466 536 40,000  Level Miami Center
04:45PM 28.5536 -79.7375 197° South 466 536 40,000  Level Miami Center
04:46PM 28.4294 -79.7839 198° South 466 536 40,000  Level Miami Center
04:47PM 28.3075 -79.8256 197° South 466 536 40,000  Level Miami Center
04:48PM 28.1814 -79.8739 199° South 466 536 40,000  Level Miami Center
04:49PM 28.0614 -79.9178 198° South 460 529 40,000 -120 Level Miami Center
04:50PM 27.9394 -79.9592 197° South 460 529 39,800 -480 Descending Miami Center
04:51PM 27.8258 -80.0031 199° South 467 537 39,100 -420 Descending Miami Center
04:52PM 27.6994 -80.0467 197° South 472 543 39,000 -60 Descending Miami Center
04:53PM 27.5775 -80.0900 197° South 472 543 39,000  Level Miami Center
04:54PM 27.4533 -80.1333 197° South 467 537 39,000  Level Miami Center
04:55PM 27.3311 -80.1814 199° South 467 537 39,000  Level Miami Center
04:56PM 27.2092 -80.2222 197° South 467 537 39,000  Level Miami Center
04:57PM 27.0892 -80.2653 198° South 467 537 39,000  Level Miami Center
04:58PM 26.9669 -80.3106 198° South 467 537 39,000  Level Miami Center
04:59PM 26.8447 -80.3536 197° South 467 537 39,000  Level Miami Center
05:00PM 26.7278 -80.4386 213° Southwest 458 527 39,000  Level Miami Center
05:01PM 26.6364 -80.5078 214° Southwest 458 527 39,000  Level Miami Center
05:02PM 26.5256 -80.5950 215° Southwest 453 521 39,000  Level Miami Center
05:03PM 26.4358 -80.6661 215° Southwest 448 516 39,000  Level Miami Center
05:04PM 26.3250 -80.7508 214° Southwest 448 516 39,000  Level Miami Center
05:05PM 26.2397 -80.8219 217° Southwest 443 510 39,000  Level Miami Center
05:06PM 26.1394 -80.8975 214° Southwest 443 510 39,000  Level Miami Center
05:07PM 26.0392 -80.9772 216° Southwest 443 510 39,000  Level Miami Center
05:08PM 25.9408 -81.0547 215° Southwest 443 510 39,000  Level Miami Center
05:09PM 25.8364 -81.1317 214° Southwest 443 510 39,000  Level Miami Center
05:10PM 25.7381 -81.2089 215° Southwest 443 510 39,000  Level Miami Center
05:11PM 25.6375 -81.2883 215° Southwest 443 510 39,000  Level Miami Center
05:12PM 25.5350 -81.3628 213° Southwest 448 516 39,000  Level Miami Center
05:13PM 25.4364 -81.4397 215° Southwest 448 516 39,000  Level Miami Center
05:14PM 25.3381 -81.5139 214° Southwest 448 516 39,000  Level Miami Center
05:15PM 25.2375 -81.5928 215° Southwest 443 510 39,000  Level Miami Center
05:16PM 25.1367 -81.6692 214° Southwest 443 510 39,000  Level Miami Center
05:17PM 25.0383 -81.7433 214° Southwest 443 510 39,000 -240 Level Miami Center
05:18PM 24.9356 -81.8169 213° Southwest 443 510 38,600 -720 Descending Miami Center
05:19PM 24.8369 -81.8956 216° Southwest 443 510 37,600 -1,200 Descending Miami Center
05:20PM 24.7319 -81.9711 213° Southwest 443 510 36,200 -1,740 Descending Miami Center
05:21PM 24.6311 -82.0492 215° Southwest 449 517 34,200 -1,980 Descending Miami Center
05:22PM 24.5325 -82.1228 214° Southwest 449 517 32,300 -1,920 Descending Miami Center
05:23PM 24.4358 -82.1961 215° Southwest 439 505 30,400 -1,860 Descending Miami Center
05:24PM 24.3375 -82.2650 213° Southwest 432 497 28,600 -1,800 Descending Miami Center
05:25PM 24.2492 -82.3361 216° Southwest 425 489 26,800 -1,800 Descending Miami Center
05:26PM 24.1567 -82.4072 215° Southwest 420 483 25,000 -1,860 Descending Miami Center
05:27PM 24.0497 -82.4797 212° Southwest 413 475 23,100 -1,980 Descending Miami Center
05:28PM 23.9478 -82.5231 201° Southwest 402 463 21,100 -2,100 Descending Miami Center
05:29PM 23.8389 -82.5361 186° South 394 453 19,000 -2,040 Descending Miami Center
05:30PM 23.7278 -82.5494 186° South 394 453 17,100 -1,800 Descending Miami Center
05:31PM 23.6208 -82.5606 185° South 400 460 15,500 -1,620 Descending Miami Center
05:33PM 23.4650 -82.5222 167° South  Level FlightAware Approximate
05:40PM 22.9891 -82.4091 172° South  Level Estimated
05:41PM 22.9891 -82.4091 172° South  Level Estimated
05:42PM 22.9891 -82.4091 172° South  Level Estimated
05:43PM 22.9891 -82.4091 172° South  Level Estimated
05:44PM 22.9891 -82.4091 172° South  Level Estimated
05:45PM 22.9891 -82.4091 172° South  Level Estimated
05:46PM 22.9891 -82.4091 172° South  Level Estimated
05:47PM 22.9891 -82.4091 172° South  Level Estimated
05:48PM 22.9891 -82.4091 172° South  Level Estimated
05:49PM 22.9891 -82.4091 172° South  Level Estimated
05:50PM 22.9891 -82.4091 172° South  Level Estimated
05:51PM 22.9891 -82.4091 172° South  Level Estimated
05:52PM 22.9891 -82.4091 172° South  Level Estimated
05:53PM 22.9891 -82.4091 172° South  Level Estimated
05:54PM 22.9891 -82.4091 172° South  Level Estimated
05:55PM 22.9891 -82.4091 172° South  Level Estimated
05:56PM 22.9891 -82.4091 172° South  Level Estimated
05:57PM 22.9891 -82.4091 172° South  Level Estimated